Time;durP1;ratioP1;P1;durP2;ratioP2;P2;SDS_P1;SDS_P2;PMS_P1;PMS_P2;Temp;Humidity;BMP_temperature;BMP_pressure;BME280_temperature;BME280_humidity;BME280_pressure;Samples;Min_cycle;Max_cycle;Signal;HPM_P1;HPM_P2
2023/11/07 00:00:42;;;;;;;12.88;5.80;;;;;;;;;;6232849;28;20061;-96
2023/11/07 00:03:45;;;;;;;10.15;5.75;;;;;;;;;;6236181;28;20049;-95
2023/11/07 00:06:46;;;;;;;10.30;5.43;;;;;;;;;;6243138;28;20571;-93
2023/11/07 00:09:49;;;;;;;11.25;5.13;;;;;;;;;;6241168;28;20049;-95
2023/11/07 00:12:53;;;;;;;10.82;5.97;;;;;;;;;;6242578;28;20060;-94
2023/11/07 00:15:55;;;;;;;12.75;6.45;;;;;;;;;;6238263;28;20141;-96
2023/11/07 00:18:57;;;;;;;11.88;5.30;;;;;;;;;;6245874;28;20071;-94
2023/11/07 00:21:59;;;;;;;9.90;5.78;;;;;;;;;;6245845;28;20041;-94
2023/11/07 00:25:01;;;;;;;9.65;5.15;;;;;;;;;;6239829;28;20101;-96
2023/11/07 00:28:06;;;;;;;12.38;5.43;;;;;;;;;;6240762;28;20057;-96
2023/11/07 00:31:12;;;;;;;11.35;5.10;;;;;;;;;;6243037;28;20056;-96
2023/11/07 00:34:16;;;;;;;9.20;5.28;;;;;;;;;;6242294;28;20065;-95
2023/11/07 00:37:18;;;;;;;11.85;5.53;;;;;;;;;;6242598;28;20104;-96
2023/11/07 00:40:20;;;;;;;9.10;5.20;;;;;;;;;;6240212;28;20052;-96
2023/11/07 00:43:23;;;;;;;10.18;4.90;;;;;;;;;;6243970;28;20056;-96
2023/11/07 00:46:25;;;;;;;8.73;5.30;;;;;;;;;;6240438;28;20053;-96
2023/11/07 00:49:27;;;;;;;12.65;5.55;;;;;;;;;;6244458;28;20061;-94
2023/11/07 00:52:29;;;;;;;7.97;4.90;;;;;;;;;;6243054;28;20066;-96
2023/11/07 00:55:31;;;;;;;10.10;5.60;;;;;;;;;;6243165;28;20172;-95
2023/11/07 00:58:34;;;;;;;10.15;5.10;;;;;;;;;;6241975;28;20057;-96
2023/11/07 01:01:36;;;;;;;9.05;5.30;;;;;;;;;;6248527;28;20061;-96
2023/11/07 01:04:38;;;;;;;11.23;5.60;;;;;;;;;;6242069;28;20048;-93
2023/11/07 01:07:40;;;;;;;13.35;6.18;;;;;;;;;;6243310;28;20069;-95
2023/11/07 01:10:43;;;;;;;14.70;6.18;;;;;;;;;;6240493;28;20490;-94
2023/11/07 01:13:46;;;;;;;8.80;5.88;;;;;;;;;;6241270;28;20170;-95
2023/11/07 01:16:49;;;;;;;11.82;6.00;;;;;;;;;;6218219;28;20054;-93
2023/11/07 01:19:51;;;;;;;10.50;5.75;;;;;;;;;;6211202;28;20053;-96
2023/11/07 01:22:53;;;;;;;9.18;5.97;;;;;;;;;;6228667;28;20117;-95
2023/11/07 01:25:55;;;;;;;13.18;5.90;;;;;;;;;;6237427;28;20077;-95
2023/11/07 01:28:59;;;;;;;10.82;6.15;;;;;;;;;;6239119;28;20064;-92
2023/11/07 01:32:01;;;;;;;13.60;6.50;;;;;;;;;;6243211;28;20173;-92
2023/11/07 01:35:04;;;;;;;11.70;6.03;;;;;;;;;;6242408;28;20061;-95
2023/11/07 01:38:06;;;;;;;13.37;6.20;;;;;;;;;;6240782;28;20054;-94
2023/11/07 01:41:08;;;;;;;12.98;5.85;;;;;;;;;;6238187;28;20057;-95
2023/11/07 01:44:12;;;;;;;9.93;5.55;;;;;;;;;;6238061;28;20050;-96
2023/11/07 01:47:30;;;;;;;11.35;5.90;;;;;;;;;;6240196;28;20064;-94
2023/11/07 01:50:32;;;;;;;11.02;6.00;;;;;;;;;;6240818;28;20109;-95
2023/11/07 01:53:34;;;;;;;11.18;5.43;;;;;;;;;;6240768;28;20049;-94
2023/11/07 01:56:36;;;;;;;13.52;6.05;;;;;;;;;;6237621;28;20053;-94
2023/11/07 01:59:43;;;;;;;11.98;6.13;;;;;;;;;;6239592;28;20065;-96
2023/11/07 02:02:46;;;;;;;9.05;5.65;;;;;;;;;;6232644;28;20052;-94
2023/11/07 02:05:48;;;;;;;7.50;5.27;;;;;;;;;;6217394;28;20042;-95
2023/11/07 02:08:50;;;;;;;11.95;6.15;;;;;;;;;;6214442;28;20053;-93
2023/11/07 02:11:52;;;;;;;9.45;5.55;;;;;;;;;;6216297;28;20054;-95
2023/11/07 02:14:57;;;;;;;8.48;4.68;;;;;;;;;;6225958;28;20041;-95
2023/11/07 02:17:59;;;;;;;11.65;4.80;;;;;;;;;;6212394;28;20053;-94
2023/11/07 02:21:01;;;;;;;9.20;4.10;;;;;;;;;;6216528;28;20069;-94
2023/11/07 02:24:10;;;;;;;8.05;4.25;;;;;;;;;;6237682;28;20050;-95
2023/11/07 02:27:11;;;;;;;8.50;4.38;;;;;;;;;;6239767;28;20069;-94
2023/11/07 02:30:14;;;;;;;7.07;4.15;;;;;;;;;;6237118;28;20049;-94
2023/11/07 02:33:19;;;;;;;9.02;3.85;;;;;;;;;;6241484;28;20057;-94
2023/11/07 02:36:21;;;;;;;9.05;4.47;;;;;;;;;;6217342;28;20121;-95
2023/11/07 02:39:24;;;;;;;8.35;4.40;;;;;;;;;;6249032;28;20081;-92
2023/11/07 02:42:26;;;;;;;8.67;3.73;;;;;;;;;;6247529;28;20116;-94
2023/11/07 02:45:29;;;;;;;5.70;3.28;;;;;;;;;;6242384;28;20045;-95
2023/11/07 02:48:32;;;;;;;6.75;3.70;;;;;;;;;;6243691;28;20057;-96
2023/11/07 02:51:35;;;;;;;7.53;3.30;;;;;;;;;;6250224;28;20100;-94
2023/11/07 02:54:38;;;;;;;6.13;2.90;;;;;;;;;;6247835;28;21317;-95
2023/11/07 02:57:40;;;;;;;6.72;3.15;;;;;;;;;;6241700;28;20068;-96
2023/11/07 03:00:43;;;;;;;8.07;3.25;;;;;;;;;;6245182;28;20057;-95
2023/11/07 03:03:46;;;;;;;6.05;3.00;;;;;;;;;;6242299;28;20050;-95
2023/11/07 03:06:48;;;;;;;6.03;2.13;;;;;;;;;;6244378;28;20266;-96
2023/11/07 03:10:00;;;;;;;5.95;2.78;;;;;;;;;;6223721;28;20045;-93
2023/11/07 03:13:02;;;;;;;8.02;2.47;;;;;;;;;;6222347;28;20097;-96
2023/11/07 03:16:08;;;;;;;7.03;2.70;;;;;;;;;;6215088;28;20045;-94
2023/11/07 03:19:10;;;;;;;4.97;2.45;;;;;;;;;;6217825;28;20062;-93
2023/11/07 03:22:12;;;;;;;6.95;2.88;;;;;;;;;;6214921;28;20057;-94
2023/11/07 03:25:16;;;;;;;8.23;2.10;;;;;;;;;;6218937;28;20050;-95
2023/11/07 03:28:20;;;;;;;6.40;2.30;;;;;;;;;;6215143;28;20054;-95
2023/11/07 03:31:21;;;;;;;5.40;2.33;;;;;;;;;;6217579;28;20115;-94
2023/11/07 03:34:24;;;;;;;5.88;2.22;;;;;;;;;;6224239;28;20045;-94
2023/11/07 03:37:25;;;;;;;4.78;2.08;;;;;;;;;;6243113;28;20058;-95
2023/11/07 03:40:29;;;;;;;5.28;2.30;;;;;;;;;;6242375;28;20155;-93
2023/11/07 03:43:32;;;;;;;5.85;2.35;;;;;;;;;;6242469;28;20385;-94
2023/11/07 03:46:34;;;;;;;7.45;2.53;;;;;;;;;;6246268;28;20077;-96
2023/11/07 03:49:36;;;;;;;4.93;2.25;;;;;;;;;;6244594;28;20332;-95
2023/11/07 03:52:38;;;;;;;8.82;2.55;;;;;;;;;;6243020;28;20042;-95
2023/11/07 03:55:41;;;;;;;4.78;2.28;;;;;;;;;;6242227;28;20053;-95
2023/11/07 03:58:44;;;;;;;8.00;2.90;;;;;;;;;;6241146;28;20046;-95
2023/11/07 04:01:45;;;;;;;4.13;2.30;;;;;;;;;;6239393;28;20463;-94
2023/11/07 04:04:48;;;;;;;5.40;2.70;;;;;;;;;;6240895;28;20318;-94
2023/11/07 04:07:50;;;;;;;5.70;2.47;;;;;;;;;;6248906;28;20338;-94
2023/11/07 04:10:53;;;;;;;6.72;2.67;;;;;;;;;;6245316;28;20342;-94
2023/11/07 04:13:56;;;;;;;6.82;2.65;;;;;;;;;;6232057;28;20070;-95
2023/11/07 04:16:59;;;;;;;4.82;2.75;;;;;;;;;;6217090;28;20125;-94
2023/11/07 04:20:01;;;;;;;11.10;3.63;;;;;;;;;;6214514;28;20050;-95
2023/11/07 04:23:04;;;;;;;4.80;1.80;;;;;;;;;;6220318;28;20534;-96
2023/11/07 04:26:08;;;;;;;4.30;1.92;;;;;;;;;;6216870;28;20050;-94
2023/11/07 04:29:10;;;;;;;;;;;;;;;;;;6218294;28;20108;-93
2023/11/07 04:32:12;;;;;;;5.63;1.40;;;;;;;;;;6217874;28;19921;-95
2023/11/07 04:35:15;;;;;;;4.55;1.63;;;;;;;;;;6216606;28;20058;-95
2023/11/07 04:38:18;;;;;;;4.97;1.60;;;;;;;;;;6214875;28;20128;-93
2023/11/07 04:44:37;;;;;;;4.50;2.20;;;;;;;;;;6228042;28;20046;-95
2023/11/07 04:47:40;;;;;;;4.10;1.50;;;;;;;;;;6240600;28;20044;-95
2023/11/07 04:50:44;;;;;;;2.42;1.67;;;;;;;;;;6240429;28;20155;-95
2023/11/07 04:53:46;;;;;;;;;;;;;;;;;;6243794;28;20049;-94
2023/11/07 04:56:49;;;;;;;3.75;1.20;;;;;;;;;;6242405;28;19917;-94
2023/11/07 04:59:51;;;;;;;6.67;1.50;;;;;;;;;;6241960;28;20062;-95
2023/11/07 05:02:53;;;;;;;4.72;1.42;;;;;;;;;;6239262;28;20453;-94
2023/11/07 05:05:55;;;;;;;5.82;1.35;;;;;;;;;;6239439;28;20064;-94
2023/11/07 05:08:57;;;;;;;2.50;1.42;;;;;;;;;;6239529;28;20081;-93
2023/11/07 05:12:05;;;;;;;4.25;1.15;;;;;;;;;;6239251;28;20330;-95
2023/11/07 05:15:27;;;;;;;4.18;1.35;;;;;;;;;;6243386;28;20050;-94
2023/11/07 05:18:29;;;;;;;4.15;1.02;;;;;;;;;;6236774;28;20068;-94
2023/11/07 05:21:31;;;;;;;4.85;1.75;;;;;;;;;;6241674;28;20064;-96
2023/11/07 05:24:33;;;;;;;2.00;1.27;;;;;;;;;;6241497;28;20061;-94
2023/11/07 05:27:36;;;;;;;1.95;1.10;;;;;;;;;;6235618;28;20053;-94
2023/11/07 05:30:38;;;;;;;3.63;1.70;;;;;;;;;;6239739;28;20059;-94
2023/11/07 05:33:44;;;;;;;3.53;1.20;;;;;;;;;;6236943;28;20116;-95
2023/11/07 05:37:06;;;;;;;6.20;1.40;;;;;;;;;;6245226;28;20326;-93
2023/11/07 05:40:13;;;;;;;4.97;1.38;;;;;;;;;;6241746;28;20056;-93
2023/11/07 05:43:16;;;;;;;2.45;1.33;;;;;;;;;;6240861;28;20324;-94
2023/11/07 05:46:21;;;;;;;3.45;1.33;;;;;;;;;;6219576;28;20117;-91
2023/11/07 05:49:23;;;;;;;3.72;1.30;;;;;;;;;;6221132;28;20121;-95
2023/11/07 05:52:25;;;;;;;2.85;1.50;;;;;;;;;;6218670;28;20053;-94
2023/11/07 05:55:26;;;;;;;2.78;1.00;;;;;;;;;;6227499;28;20064;-94
2023/11/07 06:05:00;;;;;;;6.00;1.67;;;;;;;;;;6264649;28;20060;-96
2023/11/07 06:08:02;;;;;;;5.30;2.17;;;;;;;;;;6254418;28;20064;-96
2023/11/07 06:11:05;;;;;;;3.75;1.30;;;;;;;;;;6275436;28;20060;-96
2023/11/07 06:14:08;;;;;;;3.03;1.08;;;;;;;;;;6273658;28;20052;-95
2023/11/07 06:17:13;;;;;;;3.30;1.63;;;;;;;;;;6272546;28;20045;-96
2023/11/07 06:20:16;;;;;;;4.60;1.08;;;;;;;;;;6277584;28;20051;-94
2023/11/07 06:23:18;;;;;;;5.95;1.25;;;;;;;;;;6276756;28;20053;-96
2023/11/07 06:26:21;;;;;;;4.00;1.30;;;;;;;;;;6275798;28;20056;-96
2023/11/07 06:29:24;;;;;;;3.25;1.00;;;;;;;;;;6277163;28;20052;-95
2023/11/07 06:32:28;;;;;;;2.28;1.10;;;;;;;;;;6271583;28;20055;-95
2023/11/07 06:35:30;;;;;;;3.05;1.20;;;;;;;;;;6270634;28;20053;-94
2023/11/07 06:38:32;;;;;;;3.00;1.30;;;;;;;;;;6275384;28;20072;-96
2023/11/07 06:41:34;;;;;;;3.05;1.20;;;;;;;;;;6272924;28;20355;-96
2023/11/07 06:44:36;;;;;;;3.00;1.25;;;;;;;;;;6275735;28;20387;-96
2023/11/07 06:50:57;;;;;;;3.13;1.33;;;;;;;;;;6268245;28;20245;-96
2023/11/07 06:54:00;;;;;;;4.70;1.60;;;;;;;;;;6274979;28;20045;-96
2023/11/07 06:57:02;;;;;;;3.50;1.73;;;;;;;;;;6275120;28;20094;-96
2023/11/07 07:00:06;;;;;;;3.00;1.73;;;;;;;;;;6273811;28;20321;-96
2023/11/07 07:03:10;;;;;;;4.35;2.30;;;;;;;;;;6275997;28;20067;-96
2023/11/07 07:06:12;;;;;;;3.47;2.00;;;;;;;;;;6233060;28;20292;-96
2023/11/07 07:09:14;;;;;;;6.07;2.08;;;;;;;;;;6264369;28;20057;-96
2023/11/07 07:12:17;;;;;;;5.38;2.60;;;;;;;;;;6269890;28;20061;-91
2023/11/07 07:15:18;;;;;;;6.03;2.60;;;;;;;;;;6269075;28;20056;-94
2023/11/07 07:18:22;;;;;;;4.10;2.50;;;;;;;;;;6251915;28;20057;-95
2023/11/07 07:21:25;;;;;;;7.57;2.72;;;;;;;;;;6267622;28;20064;-94
2023/11/07 07:24:29;;;;;;;3.90;2.40;;;;;;;;;;6251070;28;20064;-95
2023/11/07 07:27:48;;;;;;;6.43;3.00;;;;;;;;;;6184621;28;20054;-96
2023/11/07 07:30:50;;;;;;;6.75;3.30;;;;;;;;;;6244769;28;20057;-95
2023/11/07 07:37:26;;;;;;;7.03;3.78;;;;;;;;;;6251965;28;20155;-95
2023/11/07 07:40:29;;;;;;;8.52;3.95;;;;;;;;;;6271301;28;20045;-95
2023/11/07 07:43:31;;;;;;;8.40;4.05;;;;;;;;;;6271401;28;20053;-96
2023/11/07 07:46:34;;;;;;;9.18;4.15;;;;;;;;;;6269358;28;20124;-96
2023/11/07 07:52:56;;;;;;;5.90;3.97;;;;;;;;;;6265747;28;20460;-94
2023/11/07 07:55:58;;;;;;;7.60;4.15;;;;;;;;;;6271030;28;20063;-96
2023/11/07 07:59:05;;;;;;;5.97;3.83;;;;;;;;;;6273292;28;20059;-95
2023/11/07 08:02:07;;;;;;;7.63;4.22;;;;;;;;;;6271360;28;20057;-95
2023/11/07 08:05:14;;;;;;;10.13;5.03;;;;;;;;;;6259257;28;20045;-95
2023/11/07 08:08:34;;;;;;;9.82;4.63;;;;;;;;;;6263192;28;20234;-96
2023/11/07 08:11:36;;;;;;;9.77;4.63;;;;;;;;;;6248757;28;20049;-95
2023/11/07 08:14:38;;;;;;;9.52;5.03;;;;;;;;;;6243869;28;20219;-95
2023/11/07 08:17:40;;;;;;;8.23;4.97;;;;;;;;;;6239778;28;20088;-95
2023/11/07 08:20:45;;;;;;;8.43;5.32;;;;;;;;;;6251881;28;20049;-94
2023/11/07 08:23:47;;;;;;;8.40;5.93;;;;;;;;;;6245494;28;20423;-96
2023/11/07 08:26:50;;;;;;;9.60;5.25;;;;;;;;;;6246514;28;20072;-96
2023/11/07 08:29:52;;;;;;;7.53;4.95;;;;;;;;;;6243940;28;20061;-96
2023/11/07 08:32:54;;;;;;;7.88;4.57;;;;;;;;;;6251611;28;20124;-95
2023/11/07 08:39:23;;;;;;;9.88;6.78;;;;;;;;;;6199874;28;20053;-95
2023/11/07 08:42:25;;;;;;;15.05;8.00;;;;;;;;;;6266808;28;20049;-95
2023/11/07 08:45:28;;;;;;;16.13;9.50;;;;;;;;;;6270332;28;20099;-96
2023/11/07 08:48:30;;;;;;;17.52;10.85;;;;;;;;;;6273087;28;20355;-96
2023/11/07 08:51:34;;;;;;;22.45;11.07;;;;;;;;;;6271179;28;20081;-95
2023/11/07 08:54:36;;;;;;;17.65;10.73;;;;;;;;;;6258259;28;20237;-95
2023/11/07 08:57:39;;;;;;;20.13;11.82;;;;;;;;;;6273305;28;20045;-96
2023/11/07 09:00:43;;;;;;;19.38;11.40;;;;;;;;;;6271283;28;20045;-93
2023/11/07 09:03:45;;;;;;;19.80;10.80;;;;;;;;;;6270705;28;20044;-94
2023/11/07 09:06:49;;;;;;;17.15;10.18;;;;;;;;;;6247957;28;20593;-96
2023/11/07 09:10:12;;;;;;;16.50;11.00;;;;;;;;;;6222223;28;20044;-93
2023/11/07 09:13:14;;;;;;;16.17;11.07;;;;;;;;;;6272139;28;20206;-96
2023/11/07 09:16:16;;;;;;;20.42;10.90;;;;;;;;;;6273276;28;20059;-94
2023/11/07 09:19:18;;;;;;;19.95;10.80;;;;;;;;;;6257841;28;20056;-94
2023/11/07 09:22:22;;;;;;;15.65;10.10;;;;;;;;;;6249832;28;20049;-96
2023/11/07 09:25:25;;;;;;;18.40;10.95;;;;;;;;;;6256208;28;20046;-95
2023/11/07 09:28:26;;;;;;;15.10;9.73;;;;;;;;;;6272403;28;20055;-94
2023/11/07 09:31:29;;;;;;;15.15;10.43;;;;;;;;;;6270671;28;20053;-94
2023/11/07 09:34:32;;;;;;;14.82;10.02;;;;;;;;;;6272051;28;20055;-94
2023/11/07 09:37:39;;;;;;;17.52;10.68;;;;;;;;;;6267866;28;20061;-95
2023/11/07 09:40:44;;;;;;;16.23;9.07;;;;;;;;;;6266153;28;20044;-94
2023/11/07 09:43:46;;;;;;;16.63;10.25;;;;;;;;;;6266135;28;20327;-95
2023/11/07 09:46:49;;;;;;;17.27;10.85;;;;;;;;;;6245054;28;20053;-95
2023/11/07 09:49:55;;;;;;;17.33;9.38;;;;;;;;;;6243178;28;20056;-96
2023/11/07 09:53:00;;;;;;;15.95;10.35;;;;;;;;;;6255083;28;20057;-95
2023/11/07 09:56:05;;;;;;;15.77;9.95;;;;;;;;;;6262752;28;20352;-93
2023/11/07 09:59:15;;;;;;;13.18;9.27;;;;;;;;;;6253075;28;20100;-93
2023/11/07 10:02:17;;;;;;;15.95;9.98;;;;;;;;;;6270051;28;20045;-95
2023/11/07 10:05:21;;;;;;;15.95;11.07;;;;;;;;;;6273175;28;20087;-93
2023/11/07 10:08:25;;;;;;;18.48;10.23;;;;;;;;;;6257971;28;20046;-94
2023/11/07 10:11:26;;;;;;;16.65;10.93;;;;;;;;;;6239599;28;20069;-93
2023/11/07 10:14:28;;;;;;;15.90;11.23;;;;;;;;;;6242237;28;20360;-92
2023/11/07 10:17:30;;;;;;;16.83;10.93;;;;;;;;;;6246257;28;20049;-94
2023/11/07 10:20:32;;;;;;;19.00;11.30;;;;;;;;;;6245502;28;20129;-96
2023/11/07 10:23:37;;;;;;;17.60;12.95;;;;;;;;;;6244656;28;20084;-94
2023/11/07 10:26:50;;;;;;;17.38;12.93;;;;;;;;;;6253378;28;20069;-94
2023/11/07 10:29:53;;;;;;;21.33;12.98;;;;;;;;;;6242371;28;20329;-95
2023/11/07 10:32:55;;;;;;;20.90;13.40;;;;;;;;;;6241984;28;20444;-95
2023/11/07 10:35:59;;;;;;;20.25;12.68;;;;;;;;;;6269946;28;20098;-94
2023/11/07 10:39:31;;;;;;;19.40;12.98;;;;;;;;;;6255717;28;20052;-95
2023/11/07 10:42:54;;;;;;;23.87;12.93;;;;;;;;;;6237394;28;20049;-95
2023/11/07 10:45:56;;;;;;;21.58;14.30;;;;;;;;;;6275261;28;20117;-95
2023/11/07 10:49:00;;;;;;;17.73;12.45;;;;;;;;;;6277647;28;20467;-96
2023/11/07 10:52:05;;;;;;;18.58;11.57;;;;;;;;;;6272087;28;20053;-96
2023/11/07 10:55:09;;;;;;;20.85;13.20;;;;;;;;;;6272449;28;20049;-94
2023/11/07 10:58:14;;;;;;;23.00;14.70;;;;;;;;;;6268401;28;20045;-94
2023/11/07 11:01:19;;;;;;;18.60;13.15;;;;;;;;;;6273467;28;20053;-94
2023/11/07 11:04:23;;;;;;;18.65;13.80;;;;;;;;;;6274853;28;20064;-96
2023/11/07 11:07:26;;;;;;;20.70;13.48;;;;;;;;;;6277468;28;20052;-96
2023/11/07 11:10:30;;;;;;;24.00;17.33;;;;;;;;;;6273894;28;20045;-93
2023/11/07 11:13:34;;;;;;;50.78;30.73;;;;;;;;;;6275508;28;20067;-93
2023/11/07 11:16:36;;;;;;;42.10;26.33;;;;;;;;;;6275777;28;20060;-94
2023/11/07 11:19:42;;;;;;;29.17;18.98;;;;;;;;;;6274238;28;20102;-95
2023/11/07 11:22:48;;;;;;;21.20;14.27;;;;;;;;;;6265799;28;20102;-95
2023/11/07 11:29:36;;;;;;;18.45;13.70;;;;;;;;;;6266110;28;20054;-94
2023/11/07 11:32:43;;;;;;;16.88;13.00;;;;;;;;;;6276850;28;20057;-96
2023/11/07 11:35:45;;;;;;;17.20;12.77;;;;;;;;;;6269165;28;20284;-94
2023/11/07 11:38:47;;;;;;;20.88;13.70;;;;;;;;;;6269525;28;20049;-95
2023/11/07 11:45:28;;;;;;;20.95;14.02;;;;;;;;;;6273989;28;20064;-94
2023/11/07 11:49:02;;;;;;;21.30;14.02;;;;;;;;;;6261408;28;20053;-96
2023/11/07 11:52:34;;;;;;;18.83;13.27;;;;;;;;;;6270404;28;20086;-93
2023/11/07 11:56:07;;;;;;;19.33;13.65;;;;;;;;;;6271286;28;20313;-96
2023/11/07 11:59:24;;;;;;;15.07;12.38;;;;;;;;;;6273583;28;20049;-96
2023/11/07 12:02:44;;;;;;;22.27;12.52;;;;;;;;;;6257698;28;20049;-95
2023/11/07 12:06:03;;;;;;;20.00;13.48;;;;;;;;;;6267145;28;20221;-96
2023/11/07 12:09:05;;;;;;;18.77;12.45;;;;;;;;;;6270048;28;20049;-96
2023/11/07 12:12:08;;;;;;;20.45;13.30;;;;;;;;;;6250525;28;20048;-96
2023/11/07 12:15:16;;;;;;;19.40;13.98;;;;;;;;;;6274672;28;20053;-96
2023/11/07 12:18:21;;;;;;;17.98;13.15;;;;;;;;;;6253951;28;20064;-96
2023/11/07 12:21:24;;;;;;;18.00;12.38;;;;;;;;;;6274171;28;20055;-95
2023/11/07 12:24:27;;;;;;;18.33;13.00;;;;;;;;;;6275437;28;20054;-96
2023/11/07 12:27:31;;;;;;;20.97;13.40;;;;;;;;;;6274107;28;20091;-96
2023/11/07 12:33:50;;;;;;;17.83;12.82;;;;;;;;;;6270903;28;20053;-96
2023/11/07 12:36:53;;;;;;;22.80;14.00;;;;;;;;;;6266638;28;20053;-96
2023/11/07 12:40:04;;;;;;;16.20;13.63;;;;;;;;;;6272226;28;20064;-95
2023/11/07 12:43:10;;;;;;;20.77;14.30;;;;;;;;;;6270711;28;20379;-94
2023/11/07 12:46:16;;;;;;;17.17;12.82;;;;;;;;;;6271298;28;20057;-96
2023/11/07 12:49:18;;;;;;;20.60;13.70;;;;;;;;;;6270177;28;20087;-96
2023/11/07 12:52:20;;;;;;;20.05;13.05;;;;;;;;;;6269481;28;20060;-95
2023/11/07 12:55:26;;;;;;;74.53;47.83;;;;;;;;;;6268894;28;20069;-90
2023/11/07 12:58:30;;;;;;;52.28;29.73;;;;;;;;;;6270235;28;20044;-90
2023/11/07 13:01:36;;;;;;;64.75;39.13;;;;;;;;;;6269242;28;20292;-89
2023/11/07 13:04:38;;;;;;;62.88;43.45;;;;;;;;;;6266347;28;20049;-95
2023/11/07 13:07:39;;;;;;;19.33;14.07;;;;;;;;;;6272154;28;20063;-95
2023/11/07 13:10:41;;;;;;;21.80;13.10;;;;;;;;;;6271067;28;20102;-94
2023/11/07 13:13:44;;;;;;;20.30;13.63;;;;;;;;;;6264547;28;20053;-95
2023/11/07 13:20:10;;;;;;;21.20;14.57;;;;;;;;;;6266042;28;20103;-94
2023/11/07 13:23:13;;;;;;;18.30;13.68;;;;;;;;;;6269434;28;20103;-94
2023/11/07 13:26:15;;;;;;;19.88;12.88;;;;;;;;;;6270590;28;20054;-96
2023/11/07 13:29:17;;;;;;;15.68;11.98;;;;;;;;;;6273564;28;20069;-96
2023/11/07 13:32:20;;;;;;;20.70;14.35;;;;;;;;;;6267418;28;20048;-96
2023/11/07 13:35:22;;;;;;;;;;;;;;;;;;6272494;28;20071;-95
2023/11/07 13:38:24;;;;;;;18.83;13.57;;;;;;;;;;6266144;28;19988;-95
2023/11/07 13:41:27;;;;;;;16.30;12.82;;;;;;;;;;6270894;28;20041;-95
2023/11/07 13:44:29;;;;;;;19.10;13.70;;;;;;;;;;6259083;28;20061;-95
2023/11/07 13:47:33;;;;;;;18.08;13.10;;;;;;;;;;6244101;28;20068;-95
2023/11/07 13:50:35;;;;;;;20.88;12.93;;;;;;;;;;6259076;28;20257;-94
2023/11/07 13:53:38;;;;;;;18.10;13.45;;;;;;;;;;6267155;28;20168;-94
2023/11/07 13:56:40;;;;;;;;;;;;;;;;;;6271580;28;20068;-96
2023/11/07 13:59:42;;;;;;;21.15;14.05;;;;;;;;;;6270437;28;20078;-96
2023/11/07 14:02:46;;;;;;;17.27;12.65;;;;;;;;;;6273128;28;20056;-96
2023/11/07 14:05:48;;;;;;;16.58;11.95;;;;;;;;;;6268442;28;20059;-96
2023/11/07 14:08:50;;;;;;;15.25;11.02;;;;;;;;;;6254431;28;20233;-94
2023/11/07 14:11:53;;;;;;;17.75;11.35;;;;;;;;;;6274136;28;20067;-95
2023/11/07 14:14:54;;;;;;;15.35;10.18;;;;;;;;;;6263839;28;20053;-96
2023/11/07 14:17:59;;;;;;;16.85;10.82;;;;;;;;;;6272025;28;20116;-96
2023/11/07 14:21:02;;;;;;;15.02;10.15;;;;;;;;;;6279674;28;20128;-94
2023/11/07 14:24:05;;;;;;;;;;;;;;;;;;6272468;28;20095;-96
2023/11/07 14:27:07;;;;;;;18.20;11.27;;;;;;;;;;6276983;28;20176;-94
2023/11/07 14:30:13;;;;;;;16.77;11.45;;;;;;;;;;6256596;28;20056;-95
2023/11/07 14:36:34;;;;;;;18.40;11.95;;;;;;;;;;6242953;28;20072;-96
2023/11/07 14:39:35;;;;;;;14.73;10.90;;;;;;;;;;6247086;28;20100;-95
2023/11/07 14:42:38;;;;;;;17.48;10.85;;;;;;;;;;6246862;28;20072;-89
2023/11/07 14:45:40;;;;;;;22.48;13.23;;;;;;;;;;6276243;28;20061;-88
2023/11/07 14:48:43;;;;;;;27.35;19.75;;;;;;;;;;6251677;28;20325;-89
2023/11/07 14:51:45;;;;;;;23.13;15.18;;;;;;;;;;6244431;28;20069;-88
2023/11/07 14:54:47;;;;;;;20.30;13.13;;;;;;;;;;6248972;28;20057;-96
2023/11/07 14:57:49;;;;;;;19.40;12.65;;;;;;;;;;6251409;28;20053;-95
2023/11/07 15:00:53;;;;;;;18.83;13.77;;;;;;;;;;6264551;28;20041;-95
2023/11/07 15:03:57;;;;;;;23.15;13.20;;;;;;;;;;6271667;28;20064;-94
2023/11/07 15:06:58;;;;;;;19.55;12.52;;;;;;;;;;6276027;28;20095;-96
2023/11/07 15:10:00;;;;;;;21.80;14.00;;;;;;;;;;6244725;28;20083;-96
2023/11/07 15:13:04;;;;;;;16.17;13.07;;;;;;;;;;6274919;28;20057;-96
2023/11/07 15:16:07;;;;;;;22.17;12.70;;;;;;;;;;6275999;28;20104;-96
2023/11/07 15:19:10;;;;;;;25.90;13.10;;;;;;;;;;6269482;28;20052;-96
2023/11/07 15:22:12;;;;;;;21.80;13.32;;;;;;;;;;6272035;28;20057;-94
2023/11/07 15:25:16;;;;;;;19.67;13.32;;;;;;;;;;6275984;28;20053;-96
2023/11/07 15:28:18;;;;;;;22.48;13.18;;;;;;;;;;6250078;28;20057;-96
2023/11/07 15:31:21;;;;;;;23.67;13.95;;;;;;;;;;6246370;28;20088;-96
2023/11/07 15:34:28;;;;;;;20.25;12.77;;;;;;;;;;6250794;28;20117;-96
2023/11/07 15:37:30;;;;;;;23.90;13.60;;;;;;;;;;6272931;28;20080;-94
2023/11/07 15:40:32;;;;;;;22.30;14.95;;;;;;;;;;6272270;28;20069;-95
2023/11/07 15:43:34;;;;;;;20.73;13.70;;;;;;;;;;6256814;28;20075;-96
2023/11/07 15:46:39;;;;;;;22.90;14.95;;;;;;;;;;6264325;28;20242;-96
2023/11/07 15:49:42;;;;;;;26.60;16.15;;;;;;;;;;6242545;28;20318;-96
2023/11/07 15:52:47;;;;;;;29.40;17.80;;;;;;;;;;6249676;28;20061;-96
2023/11/07 15:55:49;;;;;;;26.98;16.48;;;;;;;;;;6243472;28;20053;-96
2023/11/07 15:58:52;;;;;;;29.08;16.92;;;;;;;;;;6253463;28;20060;-96
2023/11/07 16:01:55;;;;;;;34.00;17.63;;;;;;;;;;6271016;28;20057;-94
2023/11/07 16:04:59;;;;;;;26.65;16.08;;;;;;;;;;6240469;28;20057;-96
2023/11/07 16:08:01;;;;;;;;;;;;;;;;;;6263049;28;20053;-96
2023/11/07 16:11:04;;;;;;;30.98;18.00;;;;;;;;;;6243716;28;19917;-95
2023/11/07 16:14:06;;;;;;;28.90;18.30;;;;;;;;;;6243694;28;20104;-96
2023/11/07 16:17:08;;;;;;;33.60;18.70;;;;;;;;;;6245493;28;20099;-94
2023/11/07 16:20:12;;;;;;;33.95;19.25;;;;;;;;;;6244418;28;20045;-96
2023/11/07 16:23:31;;;;;;;32.72;19.67;;;;;;;;;;6245814;28;20069;-96
2023/11/07 16:26:38;;;;;;;30.55;18.35;;;;;;;;;;6246066;28;20321;-96
2023/11/07 16:29:41;;;;;;;32.03;18.55;;;;;;;;;;6241705;28;20092;-96
2023/11/07 16:32:44;;;;;;;28.83;18.00;;;;;;;;;;6253627;28;20052;-96
2023/11/07 16:35:48;;;;;;;29.48;19.45;;;;;;;;;;6271032;28;20283;-95
2023/11/07 16:38:50;;;;;;;30.48;18.98;;;;;;;;;;6251061;28;20173;-96
2023/11/07 16:41:52;;;;;;;30.50;19.15;;;;;;;;;;6269667;28;20315;-95
2023/11/07 16:44:53;;;;;;;32.70;19.25;;;;;;;;;;6272709;28;20060;-96
2023/11/07 16:47:55;;;;;;;36.67;19.92;;;;;;;;;;6270155;28;20114;-95
2023/11/07 16:50:59;;;;;;;35.10;20.20;;;;;;;;;;6247850;28;20048;-94
2023/11/07 16:54:01;;;;;;;34.92;20.05;;;;;;;;;;6265464;28;21716;-94
2023/11/07 16:57:04;;;;;;;39.63;19.92;;;;;;;;;;6270524;28;20048;-94
2023/11/07 17:00:10;;;;;;;29.52;19.20;;;;;;;;;;6270130;28;20359;-93
2023/11/07 17:03:12;;;;;;;31.63;21.25;;;;;;;;;;6268777;28;20325;-96
2023/11/07 17:06:15;;;;;;;31.70;20.27;;;;;;;;;;6268354;28;20065;-96
2023/11/07 17:09:20;;;;;;;35.83;20.95;;;;;;;;;;6269974;28;20438;-96
2023/11/07 17:12:23;;;;;;;32.38;19.98;;;;;;;;;;6268681;28;20045;-96
2023/11/07 17:15:26;;;;;;;33.72;20.00;;;;;;;;;;6265251;28;20329;-95
2023/11/07 17:18:28;;;;;;;37.85;22.42;;;;;;;;;;6269262;28;20337;-96
2023/11/07 17:21:32;;;;;;;32.70;21.02;;;;;;;;;;6271940;28;20355;-96
2023/11/07 17:24:34;;;;;;;;;;;;;;;;;;6260342;28;20115;-95
2023/11/07 17:27:36;;;;;;;34.58;19.95;;;;;;;;;;6272102;28;19925;-94
2023/11/07 17:30:38;;;;;;;33.33;20.35;;;;;;;;;;6244842;28;20045;-96
2023/11/07 17:33:40;;;;;;;34.00;20.77;;;;;;;;;;6244958;28;20054;-96
2023/11/07 17:36:45;;;;;;;44.25;21.77;;;;;;;;;;6246468;28;20053;-95
2023/11/07 17:39:47;;;;;;;37.25;21.63;;;;;;;;;;6246883;28;20099;-96
2023/11/07 17:42:48;;;;;;;35.00;21.88;;;;;;;;;;6249925;28;20108;-96
2023/11/07 17:45:50;;;;;;;38.63;21.92;;;;;;;;;;6247568;28;20066;-96
2023/11/07 17:48:52;;;;;;;33.72;20.77;;;;;;;;;;6248189;28;20049;-95
2023/11/07 17:51:56;;;;;;;38.75;23.02;;;;;;;;;;6234132;28;20049;-95
2023/11/07 17:54:58;;;;;;;36.58;22.20;;;;;;;;;;6249582;28;20057;-96
2023/11/07 17:58:02;;;;;;;38.35;23.08;;;;;;;;;;6248712;28;20053;-95
2023/11/07 18:01:05;;;;;;;;;;;;;;;;;;6250685;28;20045;-95
2023/11/07 18:04:08;;;;;;;37.25;23.58;;;;;;;;;;6274136;28;19924;-94
2023/11/07 18:07:14;;;;;;;40.45;24.63;;;;;;;;;;6267936;28;20128;-96
2023/11/07 18:10:17;;;;;;;39.30;25.10;;;;;;;;;;6249388;28;20141;-96
2023/11/07 18:13:21;;;;;;;40.63;25.50;;;;;;;;;;6247563;28;20272;-96
2023/11/07 18:16:23;;;;;;;39.72;24.70;;;;;;;;;;6268124;28;20448;-96
2023/11/07 18:19:25;;;;;;;38.97;24.40;;;;;;;;;;6261979;28;20073;-96
2023/11/07 18:22:28;;;;;;;38.75;21.42;;;;;;;;;;6236190;28;20337;-96
2023/11/07 18:25:30;;;;;;;34.92;19.30;;;;;;;;;;6245580;28;20058;-95
2023/11/07 18:28:33;;;;;;;26.85;16.83;;;;;;;;;;6244230;28;20061;-95
2023/11/07 18:31:35;;;;;;;28.42;17.38;;;;;;;;;;6249761;28;21097;-96
2023/11/07 18:34:37;;;;;;;23.17;15.15;;;;;;;;;;6246988;28;20053;-95
2023/11/07 18:37:41;;;;;;;28.05;14.60;;;;;;;;;;6247061;28;20141;-95
2023/11/07 18:40:44;;;;;;;19.00;12.40;;;;;;;;;;6232874;28;20057;-93
2023/11/07 18:43:46;;;;;;;16.70;10.40;;;;;;;;;;6236300;28;20052;-91
2023/11/07 18:46:48;;;;;;;15.05;9.70;;;;;;;;;;6245985;28;20052;-95